sensor_id;sensor_type;location;lat;lon;timestamp;pressure;altitude;pressure_sealevel;temperature;humidity
8366;BME280;4220;42.502;24.188;2023-06-26T00:02:14;94928.41;;;20.07;100.00
8366;BME280;4220;42.502;24.188;2023-06-26T00:04:42;94911.56;;;19.97;100.00
8366;BME280;4220;42.502;24.188;2023-06-26T00:07:09;94910.41;;;20.03;100.00
8366;BME280;4220;42.502;24.188;2023-06-26T00:09:36;94927.38;;;20.03;100.00
8366;BME280;4220;42.502;24.188;2023-06-26T00:12:03;94929.25;;;20.03;100.00
8366;BME280;4220;42.502;24.188;2023-06-26T00:14:30;94926.44;;;19.89;100.00
8366;BME280;4220;42.502;24.188;2023-06-26T00:16:58;94927.78;;;19.87;100.00
8366;BME280;4220;42.502;24.188;2023-06-26T00:19:25;94932.63;;;19.90;100.00
8366;BME280;4220;42.502;24.188;2023-06-26T00:21:52;94937.09;;;19.99;100.00
8366;BME280;4220;42.502;24.188;2023-06-26T00:24:19;94942.97;;;20.06;100.00
8366;BME280;4220;42.502;24.188;2023-06-26T00:26:47;94944.63;;;20.02;100.00
8366;BME280;4220;42.502;24.188;2023-06-26T00:29:14;94932.53;;;20.00;100.00
8366;BME280;4220;42.502;24.188;2023-06-26T00:31:41;94937.31;;;20.03;100.00
8366;BME280;4220;42.502;24.188;2023-06-26T00:34:09;94936.22;;;20.09;100.00
8366;BME280;4220;42.502;24.188;2023-06-26T00:36:36;94942.31;;;20.19;100.00
8366;BME280;4220;42.502;24.188;2023-06-26T00:39:02;94929.50;;;20.35;100.00
8366;BME280;4220;42.502;24.188;2023-06-26T00:41:30;94930.09;;;20.56;100.00
8366;BME280;4220;42.502;24.188;2023-06-26T00:43:57;94943.38;;;20.71;100.00
8366;BME280;4220;42.502;24.188;2023-06-26T00:46:24;94894.03;;;20.28;100.00
8366;BME280;4220;42.502;24.188;2023-06-26T00:48:51;94931.28;;;20.45;100.00
8366;BME280;4220;42.502;24.188;2023-06-26T00:51:20;94892.78;;;20.15;100.00
8366;BME280;4220;42.502;24.188;2023-06-26T00:53:47;94931.72;;;20.28;100.00
8366;BME280;4220;42.502;24.188;2023-06-26T00:56:15;94924.53;;;20.18;100.00
8366;BME280;4220;42.502;24.188;2023-06-26T00:58:44;94920.72;;;20.25;100.00
8366;BME280;4220;42.502;24.188;2023-06-26T01:01:12;94915.88;;;20.27;100.00
8366;BME280;4220;42.502;24.188;2023-06-26T01:03:41;94920.94;;;20.28;100.00
8366;BME280;4220;42.502;24.188;2023-06-26T01:06:10;94922.09;;;20.22;100.00
8366;BME280;4220;42.502;24.188;2023-06-26T01:08:41;94923.97;;;20.21;100.00
8366;BME280;4220;42.502;24.188;2023-06-26T01:11:08;94918.13;;;20.14;100.00
8366;BME280;4220;42.502;24.188;2023-06-26T01:13:35;94910.22;;;20.23;100.00
8366;BME280;4220;42.502;24.188;2023-06-26T01:16:03;94910.69;;;20.30;100.00
8366;BME280;4220;42.502;24.188;2023-06-26T01:18:31;94910.63;;;20.35;100.00
8366;BME280;4220;42.502;24.188;2023-06-26T01:21:00;94902.91;;;20.29;100.00
8366;BME280;4220;42.502;24.188;2023-06-26T01:23:35;94916.31;;;20.34;100.00
8366;BME280;4220;42.502;24.188;2023-06-26T01:26:21;94919.03;;;20.34;100.00
8366;BME280;4220;42.502;24.188;2023-06-26T01:28:50;94914.91;;;20.41;100.00
8366;BME280;4220;42.502;24.188;2023-06-26T01:31:19;94871.75;;;20.17;100.00
8366;BME280;4220;42.502;24.188;2023-06-26T01:33:46;94930.09;;;20.56;100.00
8366;BME280;4220;42.502;24.188;2023-06-26T01:36:13;94914.88;;;20.65;100.00
8366;BME280;4220;42.502;24.188;2023-06-26T01:38:40;94922.38;;;20.68;100.00
8366;BME280;4220;42.502;24.188;2023-06-26T01:41:07;94927.03;;;20.62;100.00
8366;BME280;4220;42.502;24.188;2023-06-26T01:43:43;94930.25;;;20.41;100.00
8366;BME280;4220;42.502;24.188;2023-06-26T01:46:23;94905.97;;;20.17;100.00
8366;BME280;4220;42.502;24.188;2023-06-26T01:48:55;94896.69;;;20.04;100.00
8366;BME280;4220;42.502;24.188;2023-06-26T01:51:30;94910.50;;;20.21;100.00
8366;BME280;4220;42.502;24.188;2023-06-26T01:54:00;94914.28;;;20.20;100.00
8366;BME280;4220;42.502;24.188;2023-06-26T01:56:28;94924.63;;;20.08;100.00
8366;BME280;4220;42.502;24.188;2023-06-26T01:58:57;94924.63;;;20.08;100.00
8366;BME280;4220;42.502;24.188;2023-06-26T02:01:26;94919.69;;;20.15;100.00
8366;BME280;4220;42.502;24.188;2023-06-26T02:03:52;94911.69;;;20.10;100.00
8366;BME280;4220;42.502;24.188;2023-06-26T02:06:19;94921.97;;;20.03;100.00
8366;BME280;4220;42.502;24.188;2023-06-26T02:08:46;94911.19;;;19.80;100.00
8366;BME280;4220;42.502;24.188;2023-06-26T02:11:13;94890.94;;;19.53;100.00
8366;BME280;4220;42.502;24.188;2023-06-26T02:13:40;94912.47;;;19.53;100.00
8366;BME280;4220;42.502;24.188;2023-06-26T02:16:08;94910.38;;;19.45;100.00
8366;BME280;4220;42.502;24.188;2023-06-26T02:18:35;94903.94;;;19.41;100.00
8366;BME280;4220;42.502;24.188;2023-06-26T02:21:03;94912.63;;;19.28;100.00
8366;BME280;4220;42.502;24.188;2023-06-26T02:23:30;94909.66;;;19.30;100.00
8366;BME280;4220;42.502;24.188;2023-06-26T02:25:56;94876.47;;;19.11;100.00
8366;BME280;4220;42.502;24.188;2023-06-26T02:28:23;94905.06;;;19.35;100.00
8366;BME280;4220;42.502;24.188;2023-06-26T02:30:50;94903.38;;;19.44;100.00
8366;BME280;4220;42.502;24.188;2023-06-26T02:33:18;94906.31;;;19.53;100.00
8366;BME280;4220;42.502;24.188;2023-06-26T02:35:45;94896.91;;;19.50;100.00
8366;BME280;4220;42.502;24.188;2023-06-26T02:38:12;94913.75;;;19.61;100.00
8366;BME280;4220;42.502;24.188;2023-06-26T02:40:39;94909.94;;;19.67;100.00
8366;BME280;4220;42.502;24.188;2023-06-26T02:43:06;94909.59;;;19.74;100.00
8366;BME280;4220;42.502;24.188;2023-06-26T02:45:33;94900.72;;;19.73;100.00
8366;BME280;4220;42.502;24.188;2023-06-26T02:48:00;94898.88;;;19.69;100.00
8366;BME280;4220;42.502;24.188;2023-06-26T02:50:28;94890.97;;;19.48;100.00
8366;BME280;4220;42.502;24.188;2023-06-26T02:52:55;94909.50;;;19.55;100.00
8366;BME280;4220;42.502;24.188;2023-06-26T02:55:21;94903.59;;;19.53;100.00
8366;BME280;4220;42.502;24.188;2023-06-26T02:57:48;94896.66;;;19.47;100.00
8366;BME280;4220;42.502;24.188;2023-06-26T03:00:15;94902.03;;;19.47;100.00
8366;BME280;4220;42.502;24.188;2023-06-26T03:02:42;94891.81;;;19.44;100.00
8366;BME280;4220;42.502;24.188;2023-06-26T03:05:09;94896.72;;;19.37;100.00
8366;BME280;4220;42.502;24.188;2023-06-26T03:07:39;94887.72;;;19.51;100.00
8366;BME280;4220;42.502;24.188;2023-06-26T03:10:07;94897.34;;;19.63;100.00
8366;BME280;4220;42.502;24.188;2023-06-26T03:12:34;94893.19;;;19.75;100.00
8366;BME280;4220;42.502;24.188;2023-06-26T03:15:01;94899.59;;;19.79;100.00
8366;BME280;4220;42.502;24.188;2023-06-26T03:17:28;94895.34;;;19.73;100.00
8366;BME280;4220;42.502;24.188;2023-06-26T03:19:55;94903.91;;;19.80;100.00
8366;BME280;4220;42.502;24.188;2023-06-26T03:22:22;94891.06;;;19.72;100.00
8366;BME280;4220;42.502;24.188;2023-06-26T03:24:50;94899.03;;;19.82;100.00
8366;BME280;4220;42.502;24.188;2023-06-26T03:27:17;94902.25;;;19.84;100.00
8366;BME280;4220;42.502;24.188;2023-06-26T03:29:44;94907.06;;;19.87;100.00
8366;BME280;4220;42.502;24.188;2023-06-26T03:32:11;94923.22;;;19.87;100.00
8366;BME280;4220;42.502;24.188;2023-06-26T03:34:37;94913.56;;;19.81;100.00
8366;BME280;4220;42.502;24.188;2023-06-26T03:37:05;94908.78;;;19.73;100.00
8366;BME280;4220;42.502;24.188;2023-06-26T03:39:31;94907.72;;;19.74;100.00
8366;BME280;4220;42.502;24.188;2023-06-26T03:42:00;94915.03;;;19.69;100.00
8366;BME280;4220;42.502;24.188;2023-06-26T03:44:27;94914.22;;;19.68;100.00
8366;BME280;4220;42.502;24.188;2023-06-26T03:46:53;94910.50;;;19.64;100.00
8366;BME280;4220;42.502;24.188;2023-06-26T03:49:20;94915.38;;;19.62;100.00
8366;BME280;4220;42.502;24.188;2023-06-26T03:51:47;94908.69;;;19.54;100.00
8366;BME280;4220;42.502;24.188;2023-06-26T03:54:14;94906.81;;;19.55;100.00
8366;BME280;4220;42.502;24.188;2023-06-26T03:56:41;94908.41;;;19.56;100.00
8366;BME280;4220;42.502;24.188;2023-06-26T03:59:09;94914.28;;;19.63;100.00
8366;BME280;4220;42.502;24.188;2023-06-26T04:01:36;94894.88;;;19.66;100.00
8366;BME280;4220;42.502;24.188;2023-06-26T04:04:03;94912.84;;;19.71;100.00
8366;BME280;4220;42.502;24.188;2023-06-26T04:06:31;94914.81;;;19.65;100.00
8366;BME280;4220;42.502;24.188;2023-06-26T04:08:58;94909.97;;;19.62;100.00
8366;BME280;4220;42.502;24.188;2023-06-26T04:11:26;94921.22;;;19.69;100.00
8366;BME280;4220;42.502;24.188;2023-06-26T04:13:53;94895.50;;;19.58;100.00
8366;BME280;4220;42.502;24.188;2023-06-26T04:16:22;94915.31;;;19.67;100.00
8366;BME280;4220;42.502;24.188;2023-06-26T04:18:50;94908.53;;;19.75;100.00
8366;BME280;4220;42.502;24.188;2023-06-26T04:21:18;94911.00;;;19.66;100.00
8366;BME280;4220;42.502;24.188;2023-06-26T04:23:45;94905.16;;;19.59;100.00
8366;BME280;4220;42.502;24.188;2023-06-26T04:26:13;94922.88;;;19.65;100.00
8366;BME280;4220;42.502;24.188;2023-06-26T04:28:40;94912.13;;;19.65;100.00
8366;BME280;4220;42.502;24.188;2023-06-26T04:31:08;94911.59;;;19.63;100.00
8366;BME280;4220;42.502;24.188;2023-06-26T04:33:37;94947.88;;;19.66;100.00
8366;BME280;4220;42.502;24.188;2023-06-26T04:36:04;94918.53;;;19.69;100.00
8366;BME280;4220;42.502;24.188;2023-06-26T04:38:32;94921.19;;;19.74;100.00
8366;BME280;4220;42.502;24.188;2023-06-26T04:40:59;94927.53;;;19.83;100.00
8366;BME280;4220;42.502;24.188;2023-06-26T04:43:25;94931.75;;;19.94;100.00
8366;BME280;4220;42.502;24.188;2023-06-26T04:45:52;94917.25;;;19.90;100.00
8366;BME280;4220;42.502;24.188;2023-06-26T04:48:19;94926.22;;;19.81;100.00
8366;BME280;4220;42.502;24.188;2023-06-26T04:50:48;94930.63;;;20.00;100.00
8366;BME280;4220;42.502;24.188;2023-06-26T04:53:19;94926.91;;;19.96;100.00
8366;BME280;4220;42.502;24.188;2023-06-26T04:55:47;94922.22;;;20.07;100.00
8366;BME280;4220;42.502;24.188;2023-06-26T04:58:14;94936.34;;;20.23;100.00
8366;BME280;4220;42.502;24.188;2023-06-26T05:00:41;94936.31;;;20.28;100.00
8366;BME280;4220;42.502;24.188;2023-06-26T05:03:09;94930.31;;;20.36;100.00
8366;BME280;4220;42.502;24.188;2023-06-26T05:05:36;94940.66;;;20.47;100.00
8366;BME280;4220;42.502;24.188;2023-06-26T05:08:15;94944.19;;;20.48;100.00
8366;BME280;4220;42.502;24.188;2023-06-26T05:10:42;94963.09;;;20.43;100.00
8366;BME280;4220;42.502;24.188;2023-06-26T05:13:09;94940.47;;;20.44;100.00
8366;BME280;4220;42.502;24.188;2023-06-26T05:15:35;94923.44;;;20.48;100.00
8366;BME280;4220;42.502;24.188;2023-06-26T05:18:03;94933.75;;;20.65;100.00
8366;BME280;4220;42.502;24.188;2023-06-26T05:20:31;94940.63;;;20.76;100.00
8366;BME280;4220;42.502;24.188;2023-06-26T05:22:58;94889.72;;;20.51;100.00
8366;BME280;4220;42.502;24.188;2023-06-26T05:25:27;94955.88;;;20.85;100.00
8366;BME280;4220;42.502;24.188;2023-06-26T05:27:55;94957.47;;;20.86;100.00
8366;BME280;4220;42.502;24.188;2023-06-26T05:30:22;94962.53;;;20.93;100.00
8366;BME280;4220;42.502;24.188;2023-06-26T05:32:51;94953.91;;;20.91;100.00
8366;BME280;4220;42.502;24.188;2023-06-26T05:35:20;94973.50;;;20.97;100.00
8366;BME280;4220;42.502;24.188;2023-06-26T05:37:48;94952.09;;;21.10;100.00
8366;BME280;4220;42.502;24.188;2023-06-26T05:40:16;94953.09;;;21.14;100.00
8366;BME280;4220;42.502;24.188;2023-06-26T05:42:46;94961.69;;;21.16;100.00
8366;BME280;4220;42.502;24.188;2023-06-26T05:45:13;94961.13;;;20.96;100.00
8366;BME280;4220;42.502;24.188;2023-06-26T05:47:40;94966.22;;;20.97;100.00
8366;BME280;4220;42.502;24.188;2023-06-26T05:50:08;94964.03;;;20.99;100.00
8366;BME280;4220;42.502;24.188;2023-06-26T05:52:36;94965.16;;;20.98;100.00
8366;BME280;4220;42.502;24.188;2023-06-26T05:55:05;94949.81;;;20.94;100.00
8366;BME280;4220;42.502;24.188;2023-06-26T05:57:32;94980.94;;;21.10;100.00
8366;BME280;4220;42.502;24.188;2023-06-26T06:00:02;94970.91;;;21.15;100.00
8366;BME280;4220;42.502;24.188;2023-06-26T06:02:36;94964.97;;;21.13;100.00
8366;BME280;4220;42.502;24.188;2023-06-26T06:05:03;94963.94;;;21.09;100.00
8366;BME280;4220;42.502;24.188;2023-06-26T06:07:31;94960.63;;;21.17;100.00
8366;BME280;4220;42.502;24.188;2023-06-26T06:09:58;94937.31;;;21.03;100.00
8366;BME280;4220;42.502;24.188;2023-06-26T06:12:25;94963.50;;;21.21;100.00
8366;BME280;4220;42.502;24.188;2023-06-26T06:14:52;94955.41;;;21.21;100.00
8366;BME280;4220;42.502;24.188;2023-06-26T06:17:20;94959.38;;;21.28;100.00
8366;BME280;4220;42.502;24.188;2023-06-26T06:19:47;94949.63;;;21.32;100.00
8366;BME280;4220;42.502;24.188;2023-06-26T06:22:14;94968.78;;;21.31;100.00
8366;BME280;4220;42.502;24.188;2023-06-26T06:24:42;94959.59;;;21.32;100.00
8366;BME280;4220;42.502;24.188;2023-06-26T06:27:09;94950.69;;;21.31;100.00
8366;BME280;4220;42.502;24.188;2023-06-26T06:29:36;94964.03;;;21.41;100.00
8366;BME280;4220;42.502;24.188;2023-06-26T06:32:16;94957.47;;;21.47;100.00
8366;BME280;4220;42.502;24.188;2023-06-26T06:34:44;94953.59;;;21.54;100.00
8366;BME280;4220;42.502;24.188;2023-06-26T06:37:11;94946.31;;;21.54;100.00
8366;BME280;4220;42.502;24.188;2023-06-26T06:39:38;94934.31;;;21.79;100.00
8366;BME280;4220;42.502;24.188;2023-06-26T06:42:05;94947.53;;;21.80;100.00
8366;BME280;4220;42.502;24.188;2023-06-26T06:44:32;94897.34;;;21.61;100.00
8366;BME280;4220;42.502;24.188;2023-06-26T06:46:59;94954.69;;;21.90;100.00
8366;BME280;4220;42.502;24.188;2023-06-26T06:49:26;94928.34;;;21.82;100.00
8366;BME280;4220;42.502;24.188;2023-06-26T06:51:54;94940.81;;;21.78;100.00
8366;BME280;4220;42.502;24.188;2023-06-26T06:54:21;94961.53;;;21.82;100.00
8366;BME280;4220;42.502;24.188;2023-06-26T06:56:47;94932.06;;;21.86;100.00
8366;BME280;4220;42.502;24.188;2023-06-26T06:59:14;94955.88;;;22.16;100.00
8366;BME280;4220;42.502;24.188;2023-06-26T07:01:41;94961.44;;;22.38;100.00
8366;BME280;4220;42.502;24.188;2023-06-26T07:04:08;94936.38;;;22.46;100.00
8366;BME280;4220;42.502;24.188;2023-06-26T07:06:35;94956.25;;;22.55;100.00
8366;BME280;4220;42.502;24.188;2023-06-26T07:09:03;94952.69;;;22.41;100.00
8366;BME280;4220;42.502;24.188;2023-06-26T07:11:31;94962.59;;;22.32;100.00
8366;BME280;4220;42.502;24.188;2023-06-26T07:13:58;94918.56;;;22.18;100.00
8366;BME280;4220;42.502;24.188;2023-06-26T07:16:24;94928.09;;;22.56;100.00
8366;BME280;4220;42.502;24.188;2023-06-26T07:18:51;94959.47;;;22.85;100.00
8366;BME280;4220;42.502;24.188;2023-06-26T07:21:18;94959.03;;;23.05;100.00
8366;BME280;4220;42.502;24.188;2023-06-26T07:23:45;94973.28;;;22.97;100.00
8366;BME280;4220;42.502;24.188;2023-06-26T07:26:14;94961.16;;;22.81;100.00
8366;BME280;4220;42.502;24.188;2023-06-26T07:28:41;94953.25;;;22.98;100.00
8366;BME280;4220;42.502;24.188;2023-06-26T07:31:08;94968.25;;;23.17;100.00
8366;BME280;4220;42.502;24.188;2023-06-26T07:33:35;94965.94;;;23.38;100.00
8366;BME280;4220;42.502;24.188;2023-06-26T07:36:01;94985.47;;;23.49;100.00
8366;BME280;4220;42.502;24.188;2023-06-26T07:38:28;94978.13;;;23.63;100.00
8366;BME280;4220;42.502;24.188;2023-06-26T07:40:55;94963.63;;;23.31;100.00
8366;BME280;4220;42.502;24.188;2023-06-26T07:43:23;94974.38;;;23.23;100.00
8366;BME280;4220;42.502;24.188;2023-06-26T07:45:50;94973.06;;;23.34;100.00
8366;BME280;4220;42.502;24.188;2023-06-26T07:48:18;94977.91;;;22.96;100.00
8366;BME280;4220;42.502;24.188;2023-06-26T07:50:45;94985.50;;;23.08;100.00
8366;BME280;4220;42.502;24.188;2023-06-26T07:53:12;94974.50;;;23.04;100.00
8366;BME280;4220;42.502;24.188;2023-06-26T07:55:39;94971.09;;;22.99;100.00
8366;BME280;4220;42.502;24.188;2023-06-26T08:04:17;94981.09;;;23.39;100.00
8366;BME280;4220;42.502;24.188;2023-06-26T08:06:45;94970.91;;;23.58;100.00
8366;BME280;4220;42.502;24.188;2023-06-26T08:09:12;94994.84;;;23.65;100.00
8366;BME280;4220;42.502;24.188;2023-06-26T08:11:39;94988.31;;;23.44;100.00
8366;BME280;4220;42.502;24.188;2023-06-26T08:14:05;94975.25;;;23.46;100.00
8366;BME280;4220;42.502;24.188;2023-06-26T08:16:32;94987.38;;;23.34;100.00
8366;BME280;4220;42.502;24.188;2023-06-26T08:18:59;94993.72;;;23.16;100.00
8366;BME280;4220;42.502;24.188;2023-06-26T08:21:28;94987.59;;;23.11;100.00
8366;BME280;4220;42.502;24.188;2023-06-26T08:23:54;94982.91;;;23.16;100.00
8366;BME280;4220;42.502;24.188;2023-06-26T08:26:21;95001.03;;;23.16;100.00
8366;BME280;4220;42.502;24.188;2023-06-26T08:28:48;94987.81;;;23.01;100.00
8366;BME280;4220;42.502;24.188;2023-06-26T08:31:15;94996.72;;;23.28;100.00
8366;BME280;4220;42.502;24.188;2023-06-26T08:33:42;95005.13;;;23.27;100.00
8366;BME280;4220;42.502;24.188;2023-06-26T08:36:09;94999.41;;;23.15;100.00
8366;BME280;4220;42.502;24.188;2023-06-26T08:38:38;94985.00;;;23.19;100.00
8366;BME280;4220;42.502;24.188;2023-06-26T08:41:05;94994.69;;;23.48;100.00
8366;BME280;4220;42.502;24.188;2023-06-26T08:43:32;94994.28;;;23.54;100.00
8366;BME280;4220;42.502;24.188;2023-06-26T08:45:59;95006.44;;;23.43;100.00
8366;BME280;4220;42.502;24.188;2023-06-26T08:48:29;95002.13;;;23.42;100.00
8366;BME280;4220;42.502;24.188;2023-06-26T08:51:01;94984.97;;;23.33;100.00
8366;BME280;4220;42.502;24.188;2023-06-26T08:53:39;94983.34;;;23.32;100.00
8366;BME280;4220;42.502;24.188;2023-06-26T08:56:07;94981.63;;;23.63;100.00
8366;BME280;4220;42.502;24.188;2023-06-26T08:58:35;94944.09;;;23.70;100.00
8366;BME280;4220;42.502;24.188;2023-06-26T09:01:04;94981.59;;;23.99;100.00
8366;BME280;4220;42.502;24.188;2023-06-26T09:03:31;94978.22;;;24.16;100.00
8366;BME280;4220;42.502;24.188;2023-06-26T09:05:58;94970.97;;;24.25;99.11
8366;BME280;4220;42.502;24.188;2023-06-26T09:08:25;94974.03;;;24.32;97.12
8366;BME280;4220;42.502;24.188;2023-06-26T09:10:54;94971.59;;;24.52;95.07
8366;BME280;4220;42.502;24.188;2023-06-26T09:13:21;94982.44;;;24.52;91.60
8366;BME280;4220;42.502;24.188;2023-06-26T09:15:48;94980.78;;;24.74;90.86
8366;BME280;4220;42.502;24.188;2023-06-26T09:18:17;94974.31;;;24.83;90.47
8366;BME280;4220;42.502;24.188;2023-06-26T09:20:44;94964.97;;;25.06;89.99
8366;BME280;4220;42.502;24.188;2023-06-26T09:23:11;94962.06;;;24.94;88.95
8366;BME280;4220;42.502;24.188;2023-06-26T09:25:39;94965.66;;;25.20;89.12
8366;BME280;4220;42.502;24.188;2023-06-26T09:28:08;94974.63;;;25.29;87.00
8366;BME280;4220;42.502;24.188;2023-06-26T09:30:35;94961.91;;;25.56;86.29
8366;BME280;4220;42.502;24.188;2023-06-26T09:33:13;94972.28;;;25.45;86.82
8366;BME280;4220;42.502;24.188;2023-06-26T09:35:41;94977.81;;;25.31;88.43
8366;BME280;4220;42.502;24.188;2023-06-26T09:38:08;94974.16;;;25.36;88.38
8366;BME280;4220;42.502;24.188;2023-06-26T09:40:35;94977.75;;;25.62;85.14
8366;BME280;4220;42.502;24.188;2023-06-26T09:43:04;94968.78;;;25.62;85.67
8366;BME280;4220;42.502;24.188;2023-06-26T09:45:33;94976.28;;;25.48;85.77
8366;BME280;4220;42.502;24.188;2023-06-26T09:48:01;94977.72;;;25.54;84.67
8366;BME280;4220;42.502;24.188;2023-06-26T09:50:29;94958.41;;;25.81;82.13
8366;BME280;4220;42.502;24.188;2023-06-26T09:52:57;94977.91;;;26.09;82.60
8366;BME280;4220;42.502;24.188;2023-06-26T09:55:26;94960.94;;;26.37;80.37
8366;BME280;4220;42.502;24.188;2023-06-26T09:57:56;94968.63;;;26.35;81.56
8366;BME280;4220;42.502;24.188;2023-06-26T10:00:26;94962.97;;;26.49;80.41
8366;BME280;4220;42.502;24.188;2023-06-26T10:02:54;94962.50;;;26.55;80.28
8366;BME280;4220;42.502;24.188;2023-06-26T10:05:21;94959.50;;;26.31;80.46
8366;BME280;4220;42.502;24.188;2023-06-26T10:07:48;94971.50;;;26.30;79.44
8366;BME280;4220;42.502;24.188;2023-06-26T10:10:16;94969.41;;;26.27;79.02
8366;BME280;4220;42.502;24.188;2023-06-26T10:12:44;94952.63;;;26.25;80.01
8366;BME280;4220;42.502;24.188;2023-06-26T10:15:14;94955.09;;;26.65;80.34
8366;BME280;4220;42.502;24.188;2023-06-26T10:17:43;94964.75;;;27.29;77.37
8366;BME280;4220;42.502;24.188;2023-06-26T10:20:14;94950.91;;;27.43;75.48
8366;BME280;4220;42.502;24.188;2023-06-26T10:22:44;94946.34;;;27.26;76.91
8366;BME280;4220;42.502;24.188;2023-06-26T10:25:15;94939.91;;;27.39;75.84
8366;BME280;4220;42.502;24.188;2023-06-26T10:27:47;94948.88;;;27.60;75.58
8366;BME280;4220;42.502;24.188;2023-06-26T10:30:18;94955.09;;;27.40;76.57
8366;BME280;4220;42.502;24.188;2023-06-26T10:32:48;94947.47;;;27.25;74.54
8366;BME280;4220;42.502;24.188;2023-06-26T10:35:17;94949.91;;;27.18;74.92
8366;BME280;4220;42.502;24.188;2023-06-26T10:37:45;94941.00;;;27.38;74.84
8366;BME280;4220;42.502;24.188;2023-06-26T10:40:13;94936.88;;;27.94;72.98
8366;BME280;4220;42.502;24.188;2023-06-26T10:42:40;94927.28;;;27.76;77.29
8366;BME280;4220;42.502;24.188;2023-06-26T10:45:13;94941.28;;;27.16;80.62
8366;BME280;4220;42.502;24.188;2023-06-26T10:47:41;94933.22;;;26.44;83.04
8366;BME280;4220;42.502;24.188;2023-06-26T10:50:21;94905.63;;;26.08;85.37
8366;BME280;4220;42.502;24.188;2023-06-26T10:53:08;94917.06;;;26.47;84.78
8366;BME280;4220;42.502;24.188;2023-06-26T10:55:35;94903.56;;;26.59;83.39
8366;BME280;4220;42.502;24.188;2023-06-26T10:58:03;94911.81;;;26.42;80.55
8366;BME280;4220;42.502;24.188;2023-06-26T11:00:30;94896.47;;;26.38;79.38
8366;BME280;4220;42.502;24.188;2023-06-26T11:02:57;94915.94;;;26.48;78.82
8366;BME280;4220;42.502;24.188;2023-06-26T11:05:28;94914.44;;;26.68;77.25
8366;BME280;4220;42.502;24.188;2023-06-26T11:08:06;94910.78;;;27.02;76.84
8366;BME280;4220;42.502;24.188;2023-06-26T11:10:49;94905.41;;;27.43;74.93
8366;BME280;4220;42.502;24.188;2023-06-26T11:13:17;94913.38;;;27.48;74.01
8366;BME280;4220;42.502;24.188;2023-06-26T11:15:45;94914.09;;;27.57;74.84
8366;BME280;4220;42.502;24.188;2023-06-26T11:18:12;94912.66;;;27.39;75.13
8366;BME280;4220;42.502;24.188;2023-06-26T11:20:41;94908.03;;;27.31;73.39
8366;BME280;4220;42.502;24.188;2023-06-26T11:23:08;94914.75;;;27.34;72.24
8366;BME280;4220;42.502;24.188;2023-06-26T11:25:35;94927.94;;;27.23;72.13
8366;BME280;4220;42.502;24.188;2023-06-26T11:28:03;94922.31;;;26.99;72.59
8366;BME280;4220;42.502;24.188;2023-06-26T11:30:30;94918.00;;;27.27;72.34
8366;BME280;4220;42.502;24.188;2023-06-26T11:33:04;94929.72;;;27.89;71.16
8366;BME280;4220;42.502;24.188;2023-06-26T11:35:31;94939.72;;;28.51;69.62
8366;BME280;4220;42.502;24.188;2023-06-26T11:38:01;94900.81;;;28.75;67.21
8366;BME280;4220;42.502;24.188;2023-06-26T11:40:31;94937.44;;;29.22;66.25
8366;BME280;4220;42.502;24.188;2023-06-26T11:42:58;94930.72;;;29.56;66.01
8366;BME280;4220;42.502;24.188;2023-06-26T11:45:28;94927.75;;;29.37;66.85
8366;BME280;4220;42.502;24.188;2023-06-26T11:47:55;94935.16;;;29.48;67.24
8366;BME280;4220;42.502;24.188;2023-06-26T11:50:23;94947.81;;;29.41;66.36
8366;BME280;4220;42.502;24.188;2023-06-26T11:52:53;94944.16;;;29.37;64.84
8366;BME280;4220;42.502;24.188;2023-06-26T11:55:23;94957.13;;;29.15;65.08
8366;BME280;4220;42.502;24.188;2023-06-26T11:57:50;94957.66;;;28.40;68.78
8366;BME280;4220;42.502;24.188;2023-06-26T12:00:20;94948.34;;;27.87;68.50
8366;BME280;4220;42.502;24.188;2023-06-26T12:02:47;94947.75;;;27.32;70.68
8366;BME280;4220;42.502;24.188;2023-06-26T12:05:15;94945.31;;;27.10;70.91
8366;BME280;4220;42.502;24.188;2023-06-26T12:07:43;94952.16;;;27.16;70.10
8366;BME280;4220;42.502;24.188;2023-06-26T12:10:11;94943.53;;;26.85;69.49
8366;BME280;4220;42.502;24.188;2023-06-26T12:12:41;94951.31;;;26.95;70.94
8366;BME280;4220;42.502;24.188;2023-06-26T12:15:12;94940.22;;;26.62;71.15
8366;BME280;4220;42.502;24.188;2023-06-26T12:17:39;94946.28;;;26.68;71.76
8366;BME280;4220;42.502;24.188;2023-06-26T12:20:17;94908.66;;;26.70;72.99
8366;BME280;4220;42.502;24.188;2023-06-26T12:22:46;94953.66;;;27.34;72.53
8366;BME280;4220;42.502;24.188;2023-06-26T12:25:13;94939.63;;;27.73;71.36
8366;BME280;4220;42.502;24.188;2023-06-26T12:27:44;94936.31;;;27.68;71.45
8366;BME280;4220;42.502;24.188;2023-06-26T12:30:12;94923.22;;;27.61;72.15
8366;BME280;4220;42.502;24.188;2023-06-26T12:32:39;94924.09;;;27.24;74.20
8366;BME280;4220;42.502;24.188;2023-06-26T12:35:06;94913.56;;;27.43;73.19
8366;BME280;4220;42.502;24.188;2023-06-26T12:37:36;94921.34;;;27.95;72.22
8366;BME280;4220;42.502;24.188;2023-06-26T12:40:16;94940.63;;;27.89;76.02
8366;BME280;4220;42.502;24.188;2023-06-26T12:42:45;94933.03;;;27.74;72.04
8366;BME280;4220;42.502;24.188;2023-06-26T12:45:13;94931.78;;;27.93;70.89
8366;BME280;4220;42.502;24.188;2023-06-26T12:47:41;94927.31;;;28.41;72.71
8366;BME280;4220;42.502;24.188;2023-06-26T12:50:08;94930.16;;;29.14;68.18
8366;BME280;4220;42.502;24.188;2023-06-26T12:52:35;94941.66;;;29.96;66.23
8366;BME280;4220;42.502;24.188;2023-06-26T12:55:02;94931.81;;;30.78;63.67
8366;BME280;4220;42.502;24.188;2023-06-26T12:57:29;94942.41;;;31.26;62.45
8366;BME280;4220;42.502;24.188;2023-06-26T12:59:57;94940.94;;;31.44;60.80
8366;BME280;4220;42.502;24.188;2023-06-26T13:02:25;94946.06;;;31.30;62.42
8366;BME280;4220;42.502;24.188;2023-06-26T13:04:51;94952.16;;;31.24;60.98
8366;BME280;4220;42.502;24.188;2023-06-26T13:07:18;94955.16;;;30.16;62.43
8366;BME280;4220;42.502;24.188;2023-06-26T13:09:45;94957.34;;;29.47;64.39
8366;BME280;4220;42.502;24.188;2023-06-26T13:12:14;94959.97;;;29.19;64.74
8366;BME280;4220;42.502;24.188;2023-06-26T13:14:41;94957.88;;;28.80;66.48